sensor_id;sensor_type;location;lat;lon;timestamp;temperature;humidity
46758;DHT22;32509;47.750;-3.396;2023-05-07T00:01:58;15.90;99.90
46758;DHT22;32509;47.750;-3.396;2023-05-07T00:04:24;15.90;99.90
46758;DHT22;32509;47.750;-3.396;2023-05-07T00:06:50;15.90;99.90
46758;DHT22;32509;47.750;-3.396;2023-05-07T00:09:16;15.90;99.90
46758;DHT22;32509;47.750;-3.396;2023-05-07T00:11:45;15.90;99.90
46758;DHT22;32509;47.750;-3.396;2023-05-07T00:14:12;15.90;99.90
46758;DHT22;32509;47.750;-3.396;2023-05-07T00:16:37;15.90;99.90
46758;DHT22;32509;47.750;-3.396;2023-05-07T00:19:03;15.90;99.90
46758;DHT22;32509;47.750;-3.396;2023-05-07T00:21:29;15.90;99.90
46758;DHT22;32509;47.750;-3.396;2023-05-07T00:23:55;15.90;99.90
46758;DHT22;32509;47.750;-3.396;2023-05-07T00:26:22;15.90;99.90
46758;DHT22;32509;47.750;-3.396;2023-05-07T00:28:47;15.90;99.90
46758;DHT22;32509;47.750;-3.396;2023-05-07T00:31:13;15.90;99.90
46758;DHT22;32509;47.750;-3.396;2023-05-07T00:33:39;15.90;99.90
46758;DHT22;32509;47.750;-3.396;2023-05-07T00:36:05;15.90;99.90
46758;DHT22;32509;47.750;-3.396;2023-05-07T00:38:31;15.90;99.90
46758;DHT22;32509;47.750;-3.396;2023-05-07T00:40:56;15.90;99.90
46758;DHT22;32509;47.750;-3.396;2023-05-07T00:43:22;15.80;99.90
46758;DHT22;32509;47.750;-3.396;2023-05-07T00:45:48;15.90;99.90
46758;DHT22;32509;47.750;-3.396;2023-05-07T00:48:14;15.90;99.90
46758;DHT22;32509;47.750;-3.396;2023-05-07T00:50:40;15.90;99.90
46758;DHT22;32509;47.750;-3.396;2023-05-07T00:53:06;15.90;99.90
46758;DHT22;32509;47.750;-3.396;2023-05-07T00:55:32;15.90;99.90
46758;DHT22;32509;47.750;-3.396;2023-05-07T00:57:58;15.90;99.90
46758;DHT22;32509;47.750;-3.396;2023-05-07T01:00:24;15.90;99.90
46758;DHT22;32509;47.750;-3.396;2023-05-07T01:02:50;15.80;99.90
46758;DHT22;32509;47.750;-3.396;2023-05-07T01:05:18;15.80;99.90
46758;DHT22;32509;47.750;-3.396;2023-05-07T01:07:44;15.80;99.90
46758;DHT22;32509;47.750;-3.396;2023-05-07T01:10:12;15.80;99.90
46758;DHT22;32509;47.750;-3.396;2023-05-07T01:12:39;15.80;99.90
46758;DHT22;32509;47.750;-3.396;2023-05-07T01:15:06;15.80;99.90
46758;DHT22;32509;47.750;-3.396;2023-05-07T01:17:37;15.80;99.90
46758;DHT22;32509;47.750;-3.396;2023-05-07T01:20:07;15.80;99.90
46758;DHT22;32509;47.750;-3.396;2023-05-07T01:22:37;15.80;99.90
46758;DHT22;32509;47.750;-3.396;2023-05-07T01:25:05;15.80;99.90
46758;DHT22;32509;47.750;-3.396;2023-05-07T01:27:31;15.80;99.90
46758;DHT22;32509;47.750;-3.396;2023-05-07T01:29:59;15.80;99.90
46758;DHT22;32509;47.750;-3.396;2023-05-07T01:35:38;15.80;99.90
46758;DHT22;32509;47.750;-3.396;2023-05-07T01:38:05;15.80;99.90
46758;DHT22;32509;47.750;-3.396;2023-05-07T01:40:31;15.80;99.90
46758;DHT22;32509;47.750;-3.396;2023-05-07T01:42:57;15.80;99.90
46758;DHT22;32509;47.750;-3.396;2023-05-07T01:45:24;15.80;99.90
46758;DHT22;32509;47.750;-3.396;2023-05-07T01:47:51;15.80;99.90
46758;DHT22;32509;47.750;-3.396;2023-05-07T01:50:19;15.80;99.90
46758;DHT22;32509;47.750;-3.396;2023-05-07T01:52:46;15.80;99.90
46758;DHT22;32509;47.750;-3.396;2023-05-07T01:55:12;15.80;99.90
46758;DHT22;32509;47.750;-3.396;2023-05-07T01:57:38;15.80;99.90
46758;DHT22;32509;47.750;-3.396;2023-05-07T02:00:05;15.80;99.90
46758;DHT22;32509;47.750;-3.396;2023-05-07T02:02:30;15.80;99.90
46758;DHT22;32509;47.750;-3.396;2023-05-07T02:04:56;15.80;99.90
46758;DHT22;32509;47.750;-3.396;2023-05-07T02:07:22;15.80;99.90
46758;DHT22;32509;47.750;-3.396;2023-05-07T02:09:48;15.80;99.90
46758;DHT22;32509;47.750;-3.396;2023-05-07T02:12:14;15.80;99.90
46758;DHT22;32509;47.750;-3.396;2023-05-07T02:14:39;15.70;99.90
46758;DHT22;32509;47.750;-3.396;2023-05-07T02:17:05;15.80;99.90
46758;DHT22;32509;47.750;-3.396;2023-05-07T02:19:31;15.80;99.90
46758;DHT22;32509;47.750;-3.396;2023-05-07T02:21:57;15.80;99.90
46758;DHT22;32509;47.750;-3.396;2023-05-07T02:24:22;15.80;99.90
46758;DHT22;32509;47.750;-3.396;2023-05-07T02:26:48;15.80;99.90
46758;DHT22;32509;47.750;-3.396;2023-05-07T02:29:14;15.80;99.90
46758;DHT22;32509;47.750;-3.396;2023-05-07T02:31:40;15.70;99.90
46758;DHT22;32509;47.750;-3.396;2023-05-07T02:34:06;15.80;99.90
46758;DHT22;32509;47.750;-3.396;2023-05-07T02:36:31;15.80;99.90
46758;DHT22;32509;47.750;-3.396;2023-05-07T02:38:57;15.80;99.90
46758;DHT22;32509;47.750;-3.396;2023-05-07T02:41:23;15.80;99.90
46758;DHT22;32509;47.750;-3.396;2023-05-07T02:43:49;15.70;99.90
46758;DHT22;32509;47.750;-3.396;2023-05-07T02:46:14;15.70;99.90
46758;DHT22;32509;47.750;-3.396;2023-05-07T02:48:41;15.70;99.90
46758;DHT22;32509;47.750;-3.396;2023-05-07T02:51:07;15.70;99.90
46758;DHT22;32509;47.750;-3.396;2023-05-07T02:53:32;15.70;99.90
46758;DHT22;32509;47.750;-3.396;2023-05-07T02:56:00;15.70;99.90
46758;DHT22;32509;47.750;-3.396;2023-05-07T02:58:26;15.70;99.90
46758;DHT22;32509;47.750;-3.396;2023-05-07T03:00:52;15.70;99.90
46758;DHT22;32509;47.750;-3.396;2023-05-07T03:03:18;15.70;99.90
46758;DHT22;32509;47.750;-3.396;2023-05-07T03:05:44;15.70;99.90
46758;DHT22;32509;47.750;-3.396;2023-05-07T03:08:10;15.70;99.90
46758;DHT22;32509;47.750;-3.396;2023-05-07T03:10:36;15.70;99.90
46758;DHT22;32509;47.750;-3.396;2023-05-07T03:13:03;15.70;99.90
46758;DHT22;32509;47.750;-3.396;2023-05-07T03:15:29;15.70;99.90
46758;DHT22;32509;47.750;-3.396;2023-05-07T03:17:55;15.70;99.90
46758;DHT22;32509;47.750;-3.396;2023-05-07T03:20:21;15.70;99.90
46758;DHT22;32509;47.750;-3.396;2023-05-07T03:22:46;15.70;99.90
46758;DHT22;32509;47.750;-3.396;2023-05-07T03:25:12;15.70;99.90
46758;DHT22;32509;47.750;-3.396;2023-05-07T03:27:39;15.70;99.90
46758;DHT22;32509;47.750;-3.396;2023-05-07T03:30:05;15.70;99.90
46758;DHT22;32509;47.750;-3.396;2023-05-07T03:32:32;15.70;99.90
46758;DHT22;32509;47.750;-3.396;2023-05-07T03:34:58;15.70;99.90
46758;DHT22;32509;47.750;-3.396;2023-05-07T03:37:24;15.70;99.90
46758;DHT22;32509;47.750;-3.396;2023-05-07T03:39:49;15.70;99.90
46758;DHT22;32509;47.750;-3.396;2023-05-07T03:42:15;15.70;99.90
46758;DHT22;32509;47.750;-3.396;2023-05-07T03:44:41;15.70;99.90
46758;DHT22;32509;47.750;-3.396;2023-05-07T03:47:07;15.70;99.90
46758;DHT22;32509;47.750;-3.396;2023-05-07T03:49:33;15.70;99.90
46758;DHT22;32509;47.750;-3.396;2023-05-07T03:51:59;15.70;99.90
46758;DHT22;32509;47.750;-3.396;2023-05-07T03:54:24;15.70;99.90
46758;DHT22;32509;47.750;-3.396;2023-05-07T03:56:50;15.70;99.90
46758;DHT22;32509;47.750;-3.396;2023-05-07T03:59:16;15.70;99.90
46758;DHT22;32509;47.750;-3.396;2023-05-07T04:01:41;15.70;99.90
46758;DHT22;32509;47.750;-3.396;2023-05-07T04:04:07;15.70;99.90
46758;DHT22;32509;47.750;-3.396;2023-05-07T04:06:33;15.70;99.90
46758;DHT22;32509;47.750;-3.396;2023-05-07T04:08:59;15.80;99.90
46758;DHT22;32509;47.750;-3.396;2023-05-07T04:11:25;15.70;99.90
46758;DHT22;32509;47.750;-3.396;2023-05-07T04:13:50;15.70;99.90
46758;DHT22;32509;47.750;-3.396;2023-05-07T04:16:16;15.70;99.90
46758;DHT22;32509;47.750;-3.396;2023-05-07T04:18:42;15.70;99.90
46758;DHT22;32509;47.750;-3.396;2023-05-07T04:21:18;15.70;99.90
46758;DHT22;32509;47.750;-3.396;2023-05-07T04:23:46;15.70;99.90
46758;DHT22;32509;47.750;-3.396;2023-05-07T04:26:12;15.70;99.90
46758;DHT22;32509;47.750;-3.396;2023-05-07T04:28:38;15.70;99.90
46758;DHT22;32509;47.750;-3.396;2023-05-07T04:31:04;15.70;99.90
46758;DHT22;32509;47.750;-3.396;2023-05-07T04:33:31;15.70;99.90
46758;DHT22;32509;47.750;-3.396;2023-05-07T04:35:57;15.70;99.90
46758;DHT22;32509;47.750;-3.396;2023-05-07T04:38:23;15.70;99.90
46758;DHT22;32509;47.750;-3.396;2023-05-07T04:40:51;15.70;99.90
46758;DHT22;32509;47.750;-3.396;2023-05-07T04:43:17;15.70;99.90
46758;DHT22;32509;47.750;-3.396;2023-05-07T04:45:42;15.70;99.90
46758;DHT22;32509;47.750;-3.396;2023-05-07T04:48:09;15.70;99.90
46758;DHT22;32509;47.750;-3.396;2023-05-07T04:50:35;15.70;99.90
46758;DHT22;32509;47.750;-3.396;2023-05-07T04:53:01;15.70;99.90
46758;DHT22;32509;47.750;-3.396;2023-05-07T04:55:26;15.70;99.90
46758;DHT22;32509;47.750;-3.396;2023-05-07T04:57:53;15.70;99.90
46758;DHT22;32509;47.750;-3.396;2023-05-07T05:00:19;15.70;99.90
46758;DHT22;32509;47.750;-3.396;2023-05-07T05:02:45;15.70;99.90
46758;DHT22;32509;47.750;-3.396;2023-05-07T05:05:11;15.70;99.90
46758;DHT22;32509;47.750;-3.396;2023-05-07T05:07:37;15.70;99.90
46758;DHT22;32509;47.750;-3.396;2023-05-07T05:10:05;15.70;99.90
46758;DHT22;32509;47.750;-3.396;2023-05-07T05:12:31;15.70;99.90
46758;DHT22;32509;47.750;-3.396;2023-05-07T05:14:58;15.70;99.90
46758;DHT22;32509;47.750;-3.396;2023-05-07T05:17:23;15.70;99.90
46758;DHT22;32509;47.750;-3.396;2023-05-07T05:19:49;15.70;99.90
46758;DHT22;32509;47.750;-3.396;2023-05-07T05:22:15;15.70;99.90
46758;DHT22;32509;47.750;-3.396;2023-05-07T05:24:42;15.70;99.90
46758;DHT22;32509;47.750;-3.396;2023-05-07T05:27:08;15.70;99.90
46758;DHT22;32509;47.750;-3.396;2023-05-07T05:29:33;15.70;99.90
46758;DHT22;32509;47.750;-3.396;2023-05-07T05:31:59;15.70;99.90
46758;DHT22;32509;47.750;-3.396;2023-05-07T05:34:25;15.70;99.90
46758;DHT22;32509;47.750;-3.396;2023-05-07T05:36:51;15.70;99.90
46758;DHT22;32509;47.750;-3.396;2023-05-07T05:39:17;15.70;99.90
46758;DHT22;32509;47.750;-3.396;2023-05-07T05:41:42;15.80;99.90
46758;DHT22;32509;47.750;-3.396;2023-05-07T05:44:08;15.70;99.90
46758;DHT22;32509;47.750;-3.396;2023-05-07T05:46:35;15.70;99.90
46758;DHT22;32509;47.750;-3.396;2023-05-07T05:49:00;15.70;99.90
46758;DHT22;32509;47.750;-3.396;2023-05-07T05:51:26;15.80;99.90
46758;DHT22;32509;47.750;-3.396;2023-05-07T05:53:52;15.80;99.90
46758;DHT22;32509;47.750;-3.396;2023-05-07T05:56:18;15.80;99.90
46758;DHT22;32509;47.750;-3.396;2023-05-07T05:58:43;15.70;99.90
46758;DHT22;32509;47.750;-3.396;2023-05-07T06:01:09;15.80;99.90
46758;DHT22;32509;47.750;-3.396;2023-05-07T06:03:36;15.70;99.90
46758;DHT22;32509;47.750;-3.396;2023-05-07T06:06:02;15.80;99.90
46758;DHT22;32509;47.750;-3.396;2023-05-07T06:08:29;15.80;99.90
46758;DHT22;32509;47.750;-3.396;2023-05-07T06:10:56;15.80;99.90
46758;DHT22;32509;47.750;-3.396;2023-05-07T06:13:22;15.80;99.90
46758;DHT22;32509;47.750;-3.396;2023-05-07T06:15:49;15.80;99.90
46758;DHT22;32509;47.750;-3.396;2023-05-07T06:18:15;15.80;99.90
46758;DHT22;32509;47.750;-3.396;2023-05-07T06:20:40;15.70;99.90
46758;DHT22;32509;47.750;-3.396;2023-05-07T06:23:06;15.80;99.90
46758;DHT22;32509;47.750;-3.396;2023-05-07T06:25:32;15.80;99.90
46758;DHT22;32509;47.750;-3.396;2023-05-07T06:27:58;15.80;99.90
46758;DHT22;32509;47.750;-3.396;2023-05-07T06:30:23;15.80;99.90
46758;DHT22;32509;47.750;-3.396;2023-05-07T06:32:49;15.80;99.90
46758;DHT22;32509;47.750;-3.396;2023-05-07T06:35:15;15.80;99.90
46758;DHT22;32509;47.750;-3.396;2023-05-07T06:37:41;15.80;99.90
46758;DHT22;32509;47.750;-3.396;2023-05-07T06:40:08;15.80;99.90
46758;DHT22;32509;47.750;-3.396;2023-05-07T06:42:35;15.80;99.90
46758;DHT22;32509;47.750;-3.396;2023-05-07T06:45:01;15.80;99.90
46758;DHT22;32509;47.750;-3.396;2023-05-07T06:47:28;15.80;99.90
46758;DHT22;32509;47.750;-3.396;2023-05-07T06:49:53;15.80;99.90
46758;DHT22;32509;47.750;-3.396;2023-05-07T06:52:19;15.80;99.90
46758;DHT22;32509;47.750;-3.396;2023-05-07T06:54:45;15.90;99.90
46758;DHT22;32509;47.750;-3.396;2023-05-07T06:57:11;15.90;99.90
46758;DHT22;32509;47.750;-3.396;2023-05-07T06:59:37;15.90;99.90
46758;DHT22;32509;47.750;-3.396;2023-05-07T07:02:02;15.90;99.90
46758;DHT22;32509;47.750;-3.396;2023-05-07T07:04:28;15.90;99.90
46758;DHT22;32509;47.750;-3.396;2023-05-07T07:06:54;15.90;99.90
46758;DHT22;32509;47.750;-3.396;2023-05-07T07:09:20;15.90;99.90
46758;DHT22;32509;47.750;-3.396;2023-05-07T07:11:46;15.90;99.90
46758;DHT22;32509;47.750;-3.396;2023-05-07T07:14:11;15.90;99.90
46758;DHT22;32509;47.750;-3.396;2023-05-07T07:16:37;15.90;99.90
46758;DHT22;32509;47.750;-3.396;2023-05-07T07:19:03;15.90;99.90
46758;DHT22;32509;47.750;-3.396;2023-05-07T07:21:28;15.90;99.90
46758;DHT22;32509;47.750;-3.396;2023-05-07T07:23:55;15.90;99.90
46758;DHT22;32509;47.750;-3.396;2023-05-07T07:26:21;16.00;99.90
46758;DHT22;32509;47.750;-3.396;2023-05-07T07:28:46;16.00;99.90
46758;DHT22;32509;47.750;-3.396;2023-05-07T07:31:12;16.00;99.90
46758;DHT22;32509;47.750;-3.396;2023-05-07T07:33:39;16.00;99.90
46758;DHT22;32509;47.750;-3.396;2023-05-07T07:36:05;16.00;99.90
46758;DHT22;32509;47.750;-3.396;2023-05-07T07:38:31;16.00;99.90
46758;DHT22;32509;47.750;-3.396;2023-05-07T07:40:57;16.00;99.90
46758;DHT22;32509;47.750;-3.396;2023-05-07T07:43:23;16.00;99.90
46758;DHT22;32509;47.750;-3.396;2023-05-07T07:45:49;16.10;99.90
46758;DHT22;32509;47.750;-3.396;2023-05-07T07:48:15;16.10;99.90
46758;DHT22;32509;47.750;-3.396;2023-05-07T07:50:40;16.10;99.90
46758;DHT22;32509;47.750;-3.396;2023-05-07T07:53:06;16.10;99.90
46758;DHT22;32509;47.750;-3.396;2023-05-07T07:55:32;16.10;99.90
46758;DHT22;32509;47.750;-3.396;2023-05-07T07:57:58;16.10;99.90
46758;DHT22;32509;47.750;-3.396;2023-05-07T08:00:23;16.10;99.90
46758;DHT22;32509;47.750;-3.396;2023-05-07T08:02:49;16.10;99.90
46758;DHT22;32509;47.750;-3.396;2023-05-07T08:05:15;16.10;99.90
46758;DHT22;32509;47.750;-3.396;2023-05-07T08:07:41;16.10;99.90
46758;DHT22;32509;47.750;-3.396;2023-05-07T08:10:07;16.10;99.90
46758;DHT22;32509;47.750;-3.396;2023-05-07T08:12:33;16.10;99.90
46758;DHT22;32509;47.750;-3.396;2023-05-07T08:14:58;16.10;99.90
46758;DHT22;32509;47.750;-3.396;2023-05-07T08:17:24;16.20;99.90
46758;DHT22;32509;47.750;-3.396;2023-05-07T08:19:50;16.10;99.90
46758;DHT22;32509;47.750;-3.396;2023-05-07T08:22:16;16.10;99.90
46758;DHT22;32509;47.750;-3.396;2023-05-07T08:24:43;16.20;99.90
46758;DHT22;32509;47.750;-3.396;2023-05-07T08:27:10;16.20;99.90
46758;DHT22;32509;47.750;-3.396;2023-05-07T08:29:35;16.20;99.90
46758;DHT22;32509;47.750;-3.396;2023-05-07T08:32:01;16.20;99.90
46758;DHT22;32509;47.750;-3.396;2023-05-07T08:34:27;16.20;99.90
46758;DHT22;32509;47.750;-3.396;2023-05-07T08:36:53;16.20;99.90
46758;DHT22;32509;47.750;-3.396;2023-05-07T08:39:19;16.20;99.90
46758;DHT22;32509;47.750;-3.396;2023-05-07T08:41:45;16.20;99.90
46758;DHT22;32509;47.750;-3.396;2023-05-07T08:44:13;16.20;99.90
46758;DHT22;32509;47.750;-3.396;2023-05-07T08:46:41;16.20;99.90
46758;DHT22;32509;47.750;-3.396;2023-05-07T08:49:09;16.20;99.90
46758;DHT22;32509;47.750;-3.396;2023-05-07T08:51:35;16.20;99.90
46758;DHT22;32509;47.750;-3.396;2023-05-07T08:54:01;16.20;99.90
46758;DHT22;32509;47.750;-3.396;2023-05-07T08:56:27;16.20;99.90
46758;DHT22;32509;47.750;-3.396;2023-05-07T08:58:53;16.20;99.90
46758;DHT22;32509;47.750;-3.396;2023-05-07T09:01:24;16.20;99.90
46758;DHT22;32509;47.750;-3.396;2023-05-07T09:03:51;16.20;99.90
46758;DHT22;32509;47.750;-3.396;2023-05-07T09:06:17;16.20;99.90
46758;DHT22;32509;47.750;-3.396;2023-05-07T09:08:49;16.20;99.90
46758;DHT22;32509;47.750;-3.396;2023-05-07T09:11:16;16.30;99.90
46758;DHT22;32509;47.750;-3.396;2023-05-07T09:13:42;16.30;99.90
46758;DHT22;32509;47.750;-3.396;2023-05-07T09:16:12;16.30;99.90
46758;DHT22;32509;47.750;-3.396;2023-05-07T09:18:42;16.30;99.90
46758;DHT22;32509;47.750;-3.396;2023-05-07T09:21:15;16.30;99.90
46758;DHT22;32509;47.750;-3.396;2023-05-07T09:23:41;16.30;99.90
46758;DHT22;32509;47.750;-3.396;2023-05-07T09:26:07;16.30;99.90
46758;DHT22;32509;47.750;-3.396;2023-05-07T09:28:41;16.40;99.90
46758;DHT22;32509;47.750;-3.396;2023-05-07T09:31:08;16.40;99.90
46758;DHT22;32509;47.750;-3.396;2023-05-07T09:33:34;16.40;99.90
46758;DHT22;32509;47.750;-3.396;2023-05-07T09:36:08;16.40;99.90
46758;DHT22;32509;47.750;-3.396;2023-05-07T09:38:35;16.40;99.90
46758;DHT22;32509;47.750;-3.396;2023-05-07T09:41:03;16.40;99.90
46758;DHT22;32509;47.750;-3.396;2023-05-07T09:43:32;16.40;99.90
46758;DHT22;32509;47.750;-3.396;2023-05-07T09:46:03;16.40;99.90
46758;DHT22;32509;47.750;-3.396;2023-05-07T09:48:34;16.40;99.90
46758;DHT22;32509;47.750;-3.396;2023-05-07T09:51:02;16.40;99.90
46758;DHT22;32509;47.750;-3.396;2023-05-07T09:53:30;16.40;99.90
46758;DHT22;32509;47.750;-3.396;2023-05-07T09:55:57;16.50;99.90
46758;DHT22;32509;47.750;-3.396;2023-05-07T09:58:25;16.50;99.90
46758;DHT22;32509;47.750;-3.396;2023-05-07T10:00:52;16.50;99.90
46758;DHT22;32509;47.750;-3.396;2023-05-07T10:03:19;16.60;99.90
46758;DHT22;32509;47.750;-3.396;2023-05-07T10:05:46;16.60;99.90
46758;DHT22;32509;47.750;-3.396;2023-05-07T10:08:13;16.60;99.90
46758;DHT22;32509;47.750;-3.396;2023-05-07T10:10:42;16.60;99.90
46758;DHT22;32509;47.750;-3.396;2023-05-07T10:13:09;16.50;99.90
46758;DHT22;32509;47.750;-3.396;2023-05-07T10:15:36;16.60;99.90
46758;DHT22;32509;47.750;-3.396;2023-05-07T10:18:04;16.60;99.90
46758;DHT22;32509;47.750;-3.396;2023-05-07T10:20:33;16.70;99.90
46758;DHT22;32509;47.750;-3.396;2023-05-07T10:22:59;16.60;99.90
46758;DHT22;32509;47.750;-3.396;2023-05-07T10:25:30;16.60;99.90
46758;DHT22;32509;47.750;-3.396;2023-05-07T10:27:59;16.60;99.90
46758;DHT22;32509;47.750;-3.396;2023-05-07T10:30:48;16.60;99.90
46758;DHT22;32509;47.750;-3.396;2023-05-07T10:33:23;16.60;99.90
46758;DHT22;32509;47.750;-3.396;2023-05-07T10:35:50;16.70;99.90
46758;DHT22;32509;47.750;-3.396;2023-05-07T10:38:16;16.70;99.90
46758;DHT22;32509;47.750;-3.396;2023-05-07T10:40:42;16.70;99.90
46758;DHT22;32509;47.750;-3.396;2023-05-07T10:43:10;16.70;99.90
46758;DHT22;32509;47.750;-3.396;2023-05-07T10:45:36;16.70;99.90
46758;DHT22;32509;47.750;-3.396;2023-05-07T10:48:13;16.70;99.90
46758;DHT22;32509;47.750;-3.396;2023-05-07T10:50:43;16.70;99.90
46758;DHT22;32509;47.750;-3.396;2023-05-07T10:59:31;16.80;99.90
46758;DHT22;32509;47.750;-3.396;2023-05-07T11:02:04;16.70;99.90
46758;DHT22;32509;47.750;-3.396;2023-05-07T11:04:31;16.80;99.90
46758;DHT22;32509;47.750;-3.396;2023-05-07T11:09:55;16.80;99.90
46758;DHT22;32509;47.750;-3.396;2023-05-07T11:15:10;16.80;99.90
46758;DHT22;32509;47.750;-3.396;2023-05-07T11:17:58;16.80;99.90
46758;DHT22;32509;47.750;-3.396;2023-05-07T11:20:57;16.90;99.90
46758;DHT22;32509;47.750;-3.396;2023-05-07T11:26:09;16.90;99.90
46758;DHT22;32509;47.750;-3.396;2023-05-07T11:28:40;17.00;99.90
46758;DHT22;32509;47.750;-3.396;2023-05-07T11:31:07;17.00;99.90
46758;DHT22;32509;47.750;-3.396;2023-05-07T11:33:33;17.00;99.90
46758;DHT22;32509;47.750;-3.396;2023-05-07T11:36:00;17.00;99.90
46758;DHT22;32509;47.750;-3.396;2023-05-07T11:38:33;17.10;99.90
46758;DHT22;32509;47.750;-3.396;2023-05-07T11:41:00;17.00;99.90
46758;DHT22;32509;47.750;-3.396;2023-05-07T11:43:31;17.10;99.90
46758;DHT22;32509;47.750;-3.396;2023-05-07T11:46:11;17.00;99.90
46758;DHT22;32509;47.750;-3.396;2023-05-07T11:48:38;17.00;99.90
46758;DHT22;32509;47.750;-3.396;2023-05-07T11:51:06;17.00;99.90
46758;DHT22;32509;47.750;-3.396;2023-05-07T11:53:39;17.00;99.90
46758;DHT22;32509;47.750;-3.396;2023-05-07T11:56:15;17.00;99.90
46758;DHT22;32509;47.750;-3.396;2023-05-07T11:58:41;17.10;99.90
46758;DHT22;32509;47.750;-3.396;2023-05-07T12:01:09;17.00;99.90
46758;DHT22;32509;47.750;-3.396;2023-05-07T12:03:36;17.10;99.90
46758;DHT22;32509;47.750;-3.396;2023-05-07T12:06:05;17.10;99.90
46758;DHT22;32509;47.750;-3.396;2023-05-07T12:08:31;17.10;99.90
46758;DHT22;32509;47.750;-3.396;2023-05-07T12:10:56;17.10;99.90
46758;DHT22;32509;47.750;-3.396;2023-05-07T12:13:25;17.20;99.90
46758;DHT22;32509;47.750;-3.396;2023-05-07T12:15:52;17.20;99.90
46758;DHT22;32509;47.750;-3.396;2023-05-07T12:18:18;17.30;99.90
46758;DHT22;32509;47.750;-3.396;2023-05-07T12:20:44;17.40;99.90
46758;DHT22;32509;47.750;-3.396;2023-05-07T12:23:10;17.30;99.90
46758;DHT22;32509;47.750;-3.396;2023-05-07T12:25:38;17.40;99.90
46758;DHT22;32509;47.750;-3.396;2023-05-07T12:28:04;17.40;99.90
46758;DHT22;32509;47.750;-3.396;2023-05-07T12:30:37;17.40;99.90
46758;DHT22;32509;47.750;-3.396;2023-05-07T12:33:03;17.50;99.90
46758;DHT22;32509;47.750;-3.396;2023-05-07T12:35:32;17.50;99.90
46758;DHT22;32509;47.750;-3.396;2023-05-07T12:38:01;17.50;99.90
46758;DHT22;32509;47.750;-3.396;2023-05-07T12:40:47;17.60;99.90
46758;DHT22;32509;47.750;-3.396;2023-05-07T12:45:47;17.60;99.90
46758;DHT22;32509;47.750;-3.396;2023-05-07T12:48:14;17.70;99.90
46758;DHT22;32509;47.750;-3.396;2023-05-07T12:50:39;17.70;99.90
46758;DHT22;32509;47.750;-3.396;2023-05-07T12:53:07;17.70;99.90
46758;DHT22;32509;47.750;-3.396;2023-05-07T12:55:41;17.70;99.90
46758;DHT22;32509;47.750;-3.396;2023-05-07T12:58:08;17.70;99.90
46758;DHT22;32509;47.750;-3.396;2023-05-07T13:00:39;17.70;99.90
46758;DHT22;32509;47.750;-3.396;2023-05-07T13:03:05;17.70;99.90
46758;DHT22;32509;47.750;-3.396;2023-05-07T13:05:31;17.80;99.90
46758;DHT22;32509;47.750;-3.396;2023-05-07T13:07:58;17.70;99.90
46758;DHT22;32509;47.750;-3.396;2023-05-07T13:10:24;17.80;99.90
46758;DHT22;32509;47.750;-3.396;2023-05-07T13:12:51;17.70;99.90
46758;DHT22;32509;47.750;-3.396;2023-05-07T13:15:17;17.70;99.90
46758;DHT22;32509;47.750;-3.396;2023-05-07T13:17:43;17.70;99.90
46758;DHT22;32509;47.750;-3.396;2023-05-07T13:20:10;17.70;99.90
46758;DHT22;32509;47.750;-3.396;2023-05-07T13:22:37;17.70;99.90
46758;DHT22;32509;47.750;-3.396;2023-05-07T13:25:03;17.70;99.90
46758;DHT22;32509;47.750;-3.396;2023-05-07T13:27:29;17.70;99.90
46758;DHT22;32509;47.750;-3.396;2023-05-07T13:29:56;17.80;99.90
46758;DHT22;32509;47.750;-3.396;2023-05-07T13:32:22;17.70;99.90
46758;DHT22;32509;47.750;-3.396;2023-05-07T13:34:48;17.70;99.90
46758;DHT22;32509;47.750;-3.396;2023-05-07T13:37:14;17.70;99.90
46758;DHT22;32509;47.750;-3.396;2023-05-07T13:39:39;17.80;99.90
46758;DHT22;32509;47.750;-3.396;2023-05-07T13:42:07;17.80;99.90
46758;DHT22;32509;47.750;-3.396;2023-05-07T13:44:33;17.70;99.90
46758;DHT22;32509;47.750;-3.396;2023-05-07T13:46:59;17.70;99.90
46758;DHT22;32509;47.750;-3.396;2023-05-07T13:49:25;17.70;99.90
46758;DHT22;32509;47.750;-3.396;2023-05-07T13:51:51;17.80;99.90
46758;DHT22;32509;47.750;-3.396;2023-05-07T13:54:17;17.80;99.90
46758;DHT22;32509;47.750;-3.396;2023-05-07T13:56:43;17.80;99.90
46758;DHT22;32509;47.750;-3.396;2023-05-07T13:59:08;17.70;99.90
46758;DHT22;32509;47.750;-3.396;2023-05-07T14:01:34;17.80;99.90
46758;DHT22;32509;47.750;-3.396;2023-05-07T14:04:00;17.80;99.90
46758;DHT22;32509;47.750;-3.396;2023-05-07T14:06:26;17.80;99.90
46758;DHT22;32509;47.750;-3.396;2023-05-07T14:08:52;17.70;99.90
46758;DHT22;32509;47.750;-3.396;2023-05-07T14:11:17;17.80;99.90
46758;DHT22;32509;47.750;-3.396;2023-05-07T14:13:43;17.80;99.90
46758;DHT22;32509;47.750;-3.396;2023-05-07T14:16:09;17.70;99.90
46758;DHT22;32509;47.750;-3.396;2023-05-07T14:18:35;17.70;99.90
46758;DHT22;32509;47.750;-3.396;2023-05-07T14:21:02;17.70;99.90
46758;DHT22;32509;47.750;-3.396;2023-05-07T14:23:28;17.70;99.90
46758;DHT22;32509;47.750;-3.396;2023-05-07T14:25:54;17.70;99.90
46758;DHT22;32509;47.750;-3.396;2023-05-07T14:28:23;17.70;99.90
46758;DHT22;32509;47.750;-3.396;2023-05-07T14:30:48;17.70;99.90
46758;DHT22;32509;47.750;-3.396;2023-05-07T14:33:14;17.70;99.90
46758;DHT22;32509;47.750;-3.396;2023-05-07T14:35:41;17.70;99.90
46758;DHT22;32509;47.750;-3.396;2023-05-07T14:38:10;17.70;99.90
46758;DHT22;32509;47.750;-3.396;2023-05-07T14:40:36;17.70;99.90
46758;DHT22;32509;47.750;-3.396;2023-05-07T14:43:02;17.70;99.90
46758;DHT22;32509;47.750;-3.396;2023-05-07T14:45:27;17.70;99.90
46758;DHT22;32509;47.750;-3.396;2023-05-07T14:47:53;17.70;99.90
46758;DHT22;32509;47.750;-3.396;2023-05-07T14:50:19;17.70;99.90
46758;DHT22;32509;47.750;-3.396;2023-05-07T14:52:45;17.70;99.90
46758;DHT22;32509;47.750;-3.396;2023-05-07T14:55:12;17.70;99.90
46758;DHT22;32509;47.750;-3.396;2023-05-07T14:57:37;17.70;99.90
46758;DHT22;32509;47.750;-3.396;2023-05-07T15:00:04;17.70;99.90
46758;DHT22;32509;47.750;-3.396;2023-05-07T15:02:34;17.70;99.90
46758;DHT22;32509;47.750;-3.396;2023-05-07T15:04:59;17.70;99.90
46758;DHT22;32509;47.750;-3.396;2023-05-07T15:07:25;17.70;99.90
46758;DHT22;32509;47.750;-3.396;2023-05-07T15:09:52;17.70;99.90
46758;DHT22;32509;47.750;-3.396;2023-05-07T15:12:18;17.80;99.90
46758;DHT22;32509;47.750;-3.396;2023-05-07T15:14:44;17.70;99.90
46758;DHT22;32509;47.750;-3.396;2023-05-07T15:17:10;17.80;99.90
46758;DHT22;32509;47.750;-3.396;2023-05-07T15:19:36;17.70;99.90
46758;DHT22;32509;47.750;-3.396;2023-05-07T15:22:02;17.70;99.90
46758;DHT22;32509;47.750;-3.396;2023-05-07T15:24:31;17.70;99.90
46758;DHT22;32509;47.750;-3.396;2023-05-07T15:26:57;17.70;99.90
46758;DHT22;32509;47.750;-3.396;2023-05-07T15:29:26;17.70;99.90
46758;DHT22;32509;47.750;-3.396;2023-05-07T15:31:52;17.70;99.90
46758;DHT22;32509;47.750;-3.396;2023-05-07T15:34:25;17.70;99.90